sensor_id;sensor_type;location;lat;lon;timestamp;temperature;humidity
20998;DHT22;10657;51.276;6.390;2023-11-19T00:01:58;11.60;99.90
20998;DHT22;10657;51.276;6.390;2023-11-19T00:04:25;11.60;99.90
20998;DHT22;10657;51.276;6.390;2023-11-19T00:06:51;11.70;99.90
20998;DHT22;10657;51.276;6.390;2023-11-19T00:09:18;11.70;99.90
20998;DHT22;10657;51.276;6.390;2023-11-19T00:11:45;11.70;99.90
20998;DHT22;10657;51.276;6.390;2023-11-19T00:14:20;11.80;99.90
20998;DHT22;10657;51.276;6.390;2023-11-19T00:16:46;12.00;99.90
20998;DHT22;10657;51.276;6.390;2023-11-19T00:19:13;11.80;99.90
20998;DHT22;10657;51.276;6.390;2023-11-19T00:21:40;11.90;99.90
20998;DHT22;10657;51.276;6.390;2023-11-19T00:24:08;12.00;99.90
20998;DHT22;10657;51.276;6.390;2023-11-19T00:26:35;12.00;99.90
20998;DHT22;10657;51.276;6.390;2023-11-19T00:29:01;12.10;99.90
20998;DHT22;10657;51.276;6.390;2023-11-19T00:31:30;12.10;99.90
20998;DHT22;10657;51.276;6.390;2023-11-19T00:33:56;12.00;99.90
20998;DHT22;10657;51.276;6.390;2023-11-19T00:36:23;11.90;99.90
20998;DHT22;10657;51.276;6.390;2023-11-19T00:38:50;12.10;99.90
20998;DHT22;10657;51.276;6.390;2023-11-19T00:41:19;12.10;99.90
20998;DHT22;10657;51.276;6.390;2023-11-19T00:43:45;12.00;99.90
20998;DHT22;10657;51.276;6.390;2023-11-19T00:46:12;12.10;99.90
20998;DHT22;10657;51.276;6.390;2023-11-19T00:48:40;12.00;99.90
20998;DHT22;10657;51.276;6.390;2023-11-19T00:51:06;12.10;99.90
20998;DHT22;10657;51.276;6.390;2023-11-19T00:53:33;12.10;99.90
20998;DHT22;10657;51.276;6.390;2023-11-19T00:56:03;12.10;99.90
20998;DHT22;10657;51.276;6.390;2023-11-19T00:58:30;12.00;99.90
20998;DHT22;10657;51.276;6.390;2023-11-19T01:00:57;12.00;99.90
20998;DHT22;10657;51.276;6.390;2023-11-19T01:03:24;12.00;99.90
20998;DHT22;10657;51.276;6.390;2023-11-19T01:05:50;12.00;99.90
20998;DHT22;10657;51.276;6.390;2023-11-19T01:08:18;12.10;99.90
20998;DHT22;10657;51.276;6.390;2023-11-19T01:10:45;12.10;99.90
20998;DHT22;10657;51.276;6.390;2023-11-19T01:13:12;12.10;99.90
20998;DHT22;10657;51.276;6.390;2023-11-19T01:15:38;12.00;99.90
20998;DHT22;10657;51.276;6.390;2023-11-19T01:18:07;12.10;99.90
20998;DHT22;10657;51.276;6.390;2023-11-19T01:20:36;12.20;99.90
20998;DHT22;10657;51.276;6.390;2023-11-19T01:23:03;12.20;99.90
20998;DHT22;10657;51.276;6.390;2023-11-19T01:25:30;12.10;99.90
20998;DHT22;10657;51.276;6.390;2023-11-19T01:27:56;12.30;99.90
20998;DHT22;10657;51.276;6.390;2023-11-19T01:30:25;12.10;99.90
20998;DHT22;10657;51.276;6.390;2023-11-19T01:32:52;12.10;99.90
20998;DHT22;10657;51.276;6.390;2023-11-19T01:35:19;12.20;99.90
20998;DHT22;10657;51.276;6.390;2023-11-19T01:37:45;12.20;99.90
20998;DHT22;10657;51.276;6.390;2023-11-19T01:40:12;12.20;99.90
20998;DHT22;10657;51.276;6.390;2023-11-19T01:42:39;12.30;99.90
20998;DHT22;10657;51.276;6.390;2023-11-19T01:45:06;12.20;99.90
20998;DHT22;10657;51.276;6.390;2023-11-19T01:47:35;12.20;99.90
20998;DHT22;10657;51.276;6.390;2023-11-19T01:50:03;12.20;99.90
20998;DHT22;10657;51.276;6.390;2023-11-19T01:52:34;12.30;99.90
20998;DHT22;10657;51.276;6.390;2023-11-19T01:55:07;12.40;99.90
20998;DHT22;10657;51.276;6.390;2023-11-19T01:57:35;12.30;99.90
20998;DHT22;10657;51.276;6.390;2023-11-19T02:00:04;12.30;99.90
20998;DHT22;10657;51.276;6.390;2023-11-19T02:02:32;12.30;99.90
20998;DHT22;10657;51.276;6.390;2023-11-19T02:04:59;12.40;99.90
20998;DHT22;10657;51.276;6.390;2023-11-19T02:07:26;12.30;99.90
20998;DHT22;10657;51.276;6.390;2023-11-19T02:09:53;12.40;99.90
20998;DHT22;10657;51.276;6.390;2023-11-19T02:12:20;12.40;99.90
20998;DHT22;10657;51.276;6.390;2023-11-19T02:14:47;12.30;99.90
20998;DHT22;10657;51.276;6.390;2023-11-19T02:17:27;12.30;99.90
20998;DHT22;10657;51.276;6.390;2023-11-19T02:19:54;12.40;99.90
20998;DHT22;10657;51.276;6.390;2023-11-19T02:22:20;12.30;99.90
20998;DHT22;10657;51.276;6.390;2023-11-19T02:24:51;12.30;99.90
20998;DHT22;10657;51.276;6.390;2023-11-19T02:28:12;12.30;99.90
20998;DHT22;10657;51.276;6.390;2023-11-19T02:30:13;12.30;99.90
20998;DHT22;10657;51.276;6.390;2023-11-19T02:32:42;12.30;99.90
20998;DHT22;10657;51.276;6.390;2023-11-19T02:35:09;12.30;99.90
20998;DHT22;10657;51.276;6.390;2023-11-19T02:37:36;12.40;99.90
20998;DHT22;10657;51.276;6.390;2023-11-19T02:40:03;12.30;99.90
20998;DHT22;10657;51.276;6.390;2023-11-19T02:42:30;12.40;99.90
20998;DHT22;10657;51.276;6.390;2023-11-19T02:44:57;12.40;99.90
20998;DHT22;10657;51.276;6.390;2023-11-19T02:47:25;12.40;99.90
20998;DHT22;10657;51.276;6.390;2023-11-19T02:49:52;12.40;99.90
20998;DHT22;10657;51.276;6.390;2023-11-19T02:52:19;12.50;99.90
20998;DHT22;10657;51.276;6.390;2023-11-19T02:54:46;12.40;99.90
20998;DHT22;10657;51.276;6.390;2023-11-19T02:57:13;12.40;99.90
20998;DHT22;10657;51.276;6.390;2023-11-19T02:59:48;12.30;99.90
20998;DHT22;10657;51.276;6.390;2023-11-19T03:02:15;12.40;99.90
20998;DHT22;10657;51.276;6.390;2023-11-19T03:04:42;12.50;99.90
20998;DHT22;10657;51.276;6.390;2023-11-19T03:07:10;12.50;99.90
20998;DHT22;10657;51.276;6.390;2023-11-19T03:09:37;12.50;99.90
20998;DHT22;10657;51.276;6.390;2023-11-19T03:12:07;12.60;99.90
20998;DHT22;10657;51.276;6.390;2023-11-19T03:14:34;12.60;99.90
20998;DHT22;10657;51.276;6.390;2023-11-19T03:17:04;12.60;99.90
20998;DHT22;10657;51.276;6.390;2023-11-19T03:19:31;12.60;99.90
20998;DHT22;10657;51.276;6.390;2023-11-19T03:21:58;12.60;99.90
20998;DHT22;10657;51.276;6.390;2023-11-19T03:24:26;12.60;99.90
20998;DHT22;10657;51.276;6.390;2023-11-19T03:26:52;12.60;99.90
20998;DHT22;10657;51.276;6.390;2023-11-19T03:29:19;12.60;99.90
20998;DHT22;10657;51.276;6.390;2023-11-19T03:31:46;12.70;99.90
20998;DHT22;10657;51.276;6.390;2023-11-19T03:34:12;12.60;99.90
20998;DHT22;10657;51.276;6.390;2023-11-19T03:36:39;12.60;99.90
20998;DHT22;10657;51.276;6.390;2023-11-19T03:39:06;12.60;99.90
20998;DHT22;10657;51.276;6.390;2023-11-19T03:41:33;12.60;99.90
20998;DHT22;10657;51.276;6.390;2023-11-19T03:44:03;12.60;99.90
20998;DHT22;10657;51.276;6.390;2023-11-19T03:46:29;12.60;99.90
20998;DHT22;10657;51.276;6.390;2023-11-19T03:48:57;12.50;99.90
20998;DHT22;10657;51.276;6.390;2023-11-19T03:51:23;12.50;99.90
20998;DHT22;10657;51.276;6.390;2023-11-19T03:53:50;12.40;99.90
20998;DHT22;10657;51.276;6.390;2023-11-19T03:56:17;12.50;99.90
20998;DHT22;10657;51.276;6.390;2023-11-19T03:58:43;12.40;99.90
20998;DHT22;10657;51.276;6.390;2023-11-19T04:01:13;12.40;99.90
20998;DHT22;10657;51.276;6.390;2023-11-19T04:03:41;12.40;99.90
20998;DHT22;10657;51.276;6.390;2023-11-19T04:06:10;12.40;99.90
20998;DHT22;10657;51.276;6.390;2023-11-19T04:08:37;12.40;99.90
20998;DHT22;10657;51.276;6.390;2023-11-19T04:11:04;12.30;99.90
20998;DHT22;10657;51.276;6.390;2023-11-19T04:13:31;12.30;99.90
20998;DHT22;10657;51.276;6.390;2023-11-19T04:15:58;12.30;99.90
20998;DHT22;10657;51.276;6.390;2023-11-19T04:18:25;12.30;99.90
20998;DHT22;10657;51.276;6.390;2023-11-19T04:20:51;12.30;99.90
20998;DHT22;10657;51.276;6.390;2023-11-19T04:23:18;12.20;99.90
20998;DHT22;10657;51.276;6.390;2023-11-19T04:25:45;12.30;99.90
20998;DHT22;10657;51.276;6.390;2023-11-19T04:28:11;12.30;99.90
20998;DHT22;10657;51.276;6.390;2023-11-19T04:30:38;12.20;99.90
20998;DHT22;10657;51.276;6.390;2023-11-19T04:33:05;12.30;99.90
20998;DHT22;10657;51.276;6.390;2023-11-19T04:35:32;12.10;99.90
20998;DHT22;10657;51.276;6.390;2023-11-19T04:37:59;12.20;99.90
20998;DHT22;10657;51.276;6.390;2023-11-19T04:40:25;12.20;99.90
20998;DHT22;10657;51.276;6.390;2023-11-19T04:42:52;12.20;99.90
20998;DHT22;10657;51.276;6.390;2023-11-19T04:45:19;12.20;99.90
20998;DHT22;10657;51.276;6.390;2023-11-19T04:47:46;12.20;99.90
20998;DHT22;10657;51.276;6.390;2023-11-19T04:50:13;12.30;99.90
20998;DHT22;10657;51.276;6.390;2023-11-19T04:52:40;12.30;99.90
20998;DHT22;10657;51.276;6.390;2023-11-19T04:55:07;12.20;99.90
20998;DHT22;10657;51.276;6.390;2023-11-19T04:57:34;12.20;99.90
20998;DHT22;10657;51.276;6.390;2023-11-19T05:00:00;12.30;99.90
20998;DHT22;10657;51.276;6.390;2023-11-19T05:02:27;12.20;99.90
20998;DHT22;10657;51.276;6.390;2023-11-19T05:04:54;12.20;99.90
20998;DHT22;10657;51.276;6.390;2023-11-19T05:07:21;12.20;99.90
20998;DHT22;10657;51.276;6.390;2023-11-19T05:09:48;12.20;99.90
20998;DHT22;10657;51.276;6.390;2023-11-19T05:12:15;12.20;99.90
20998;DHT22;10657;51.276;6.390;2023-11-19T05:14:41;12.20;99.90
20998;DHT22;10657;51.276;6.390;2023-11-19T05:17:16;12.20;99.90
20998;DHT22;10657;51.276;6.390;2023-11-19T05:19:44;12.20;99.90
20998;DHT22;10657;51.276;6.390;2023-11-19T05:22:11;12.20;99.90
20998;DHT22;10657;51.276;6.390;2023-11-19T05:24:39;12.20;99.90
20998;DHT22;10657;51.276;6.390;2023-11-19T05:27:07;12.20;99.90
20998;DHT22;10657;51.276;6.390;2023-11-19T05:29:34;12.20;99.90
20998;DHT22;10657;51.276;6.390;2023-11-19T05:32:01;12.30;99.90
20998;DHT22;10657;51.276;6.390;2023-11-19T05:34:27;12.20;99.90
20998;DHT22;10657;51.276;6.390;2023-11-19T05:36:55;12.30;99.90
20998;DHT22;10657;51.276;6.390;2023-11-19T05:39:21;12.30;99.90
20998;DHT22;10657;51.276;6.390;2023-11-19T05:41:48;12.40;99.90
20998;DHT22;10657;51.276;6.390;2023-11-19T05:44:15;12.40;99.90
20998;DHT22;10657;51.276;6.390;2023-11-19T05:46:42;12.40;99.90
20998;DHT22;10657;51.276;6.390;2023-11-19T05:49:11;12.30;99.90
20998;DHT22;10657;51.276;6.390;2023-11-19T05:51:38;12.30;99.90
20998;DHT22;10657;51.276;6.390;2023-11-19T05:54:09;12.30;99.90
20998;DHT22;10657;51.276;6.390;2023-11-19T05:56:36;12.30;99.90
20998;DHT22;10657;51.276;6.390;2023-11-19T05:59:03;12.30;99.90
20998;DHT22;10657;51.276;6.390;2023-11-19T06:01:34;12.20;99.90
20998;DHT22;10657;51.276;6.390;2023-11-19T06:04:01;12.20;99.90
20998;DHT22;10657;51.276;6.390;2023-11-19T06:06:28;12.20;99.90
20998;DHT22;10657;51.276;6.390;2023-11-19T06:08:55;12.20;99.90
20998;DHT22;10657;51.276;6.390;2023-11-19T06:11:22;12.20;99.90
20998;DHT22;10657;51.276;6.390;2023-11-19T06:13:49;12.20;99.90
20998;DHT22;10657;51.276;6.390;2023-11-19T06:16:17;12.20;99.90
20998;DHT22;10657;51.276;6.390;2023-11-19T06:18:44;12.10;99.90
20998;DHT22;10657;51.276;6.390;2023-11-19T06:21:12;12.20;99.90
20998;DHT22;10657;51.276;6.390;2023-11-19T06:23:39;12.20;99.90
20998;DHT22;10657;51.276;6.390;2023-11-19T06:26:06;12.10;99.90
20998;DHT22;10657;51.276;6.390;2023-11-19T06:28:32;12.10;99.90
20998;DHT22;10657;51.276;6.390;2023-11-19T06:30:59;12.10;99.90
20998;DHT22;10657;51.276;6.390;2023-11-19T06:33:26;12.10;99.90
20998;DHT22;10657;51.276;6.390;2023-11-19T06:35:53;12.00;99.90
20998;DHT22;10657;51.276;6.390;2023-11-19T06:38:21;12.00;99.90
20998;DHT22;10657;51.276;6.390;2023-11-19T06:40:47;12.00;99.90
20998;DHT22;10657;51.276;6.390;2023-11-19T06:43:19;11.90;99.90
20998;DHT22;10657;51.276;6.390;2023-11-19T06:45:46;11.90;99.90
20998;DHT22;10657;51.276;6.390;2023-11-19T06:48:12;11.90;99.90
20998;DHT22;10657;51.276;6.390;2023-11-19T06:50:39;11.90;99.90
20998;DHT22;10657;51.276;6.390;2023-11-19T06:53:06;11.80;99.90
20998;DHT22;10657;51.276;6.390;2023-11-19T06:55:36;11.80;99.90
20998;DHT22;10657;51.276;6.390;2023-11-19T06:58:03;11.80;99.90
20998;DHT22;10657;51.276;6.390;2023-11-19T07:00:30;11.70;99.90
20998;DHT22;10657;51.276;6.390;2023-11-19T07:02:59;11.70;99.90
20998;DHT22;10657;51.276;6.390;2023-11-19T07:05:26;11.70;99.90
20998;DHT22;10657;51.276;6.390;2023-11-19T07:07:53;11.60;99.90
20998;DHT22;10657;51.276;6.390;2023-11-19T07:10:21;11.60;99.90
20998;DHT22;10657;51.276;6.390;2023-11-19T07:12:47;11.60;99.90
20998;DHT22;10657;51.276;6.390;2023-11-19T07:15:16;11.60;99.90
20998;DHT22;10657;51.276;6.390;2023-11-19T07:17:44;11.60;99.90
20998;DHT22;10657;51.276;6.390;2023-11-19T07:20:11;11.60;99.90
20998;DHT22;10657;51.276;6.390;2023-11-19T07:22:44;11.60;99.90
20998;DHT22;10657;51.276;6.390;2023-11-19T07:25:15;11.50;99.90
20998;DHT22;10657;51.276;6.390;2023-11-19T07:27:42;11.50;99.90
20998;DHT22;10657;51.276;6.390;2023-11-19T07:30:09;11.50;99.90
20998;DHT22;10657;51.276;6.390;2023-11-19T07:32:36;11.50;99.90
20998;DHT22;10657;51.276;6.390;2023-11-19T07:35:06;11.50;99.90
20998;DHT22;10657;51.276;6.390;2023-11-19T07:37:33;11.50;99.90
20998;DHT22;10657;51.276;6.390;2023-11-19T07:40:00;11.50;99.90
20998;DHT22;10657;51.276;6.390;2023-11-19T07:42:26;11.50;99.90
20998;DHT22;10657;51.276;6.390;2023-11-19T07:44:53;11.50;99.90
20998;DHT22;10657;51.276;6.390;2023-11-19T07:47:22;11.50;99.90
20998;DHT22;10657;51.276;6.390;2023-11-19T07:49:50;11.50;99.90
20998;DHT22;10657;51.276;6.390;2023-11-19T07:52:17;11.50;99.90
20998;DHT22;10657;51.276;6.390;2023-11-19T07:54:47;11.50;99.90
20998;DHT22;10657;51.276;6.390;2023-11-19T07:57:14;11.50;99.90
20998;DHT22;10657;51.276;6.390;2023-11-19T07:59:41;11.50;99.90
20998;DHT22;10657;51.276;6.390;2023-11-19T08:02:08;11.60;99.90
20998;DHT22;10657;51.276;6.390;2023-11-19T08:04:35;11.60;99.90
20998;DHT22;10657;51.276;6.390;2023-11-19T08:07:02;11.60;99.90
20998;DHT22;10657;51.276;6.390;2023-11-19T08:09:29;11.70;99.90
20998;DHT22;10657;51.276;6.390;2023-11-19T08:11:56;11.80;99.90
20998;DHT22;10657;51.276;6.390;2023-11-19T08:14:23;11.80;99.90
20998;DHT22;10657;51.276;6.390;2023-11-19T08:16:50;11.80;99.90
20998;DHT22;10657;51.276;6.390;2023-11-19T08:19:17;11.80;99.90
20998;DHT22;10657;51.276;6.390;2023-11-19T08:21:43;11.80;99.90
20998;DHT22;10657;51.276;6.390;2023-11-19T08:24:10;11.80;99.90
20998;DHT22;10657;51.276;6.390;2023-11-19T08:26:37;11.80;99.90
20998;DHT22;10657;51.276;6.390;2023-11-19T08:29:04;11.80;99.90
20998;DHT22;10657;51.276;6.390;2023-11-19T08:31:30;11.80;99.90
20998;DHT22;10657;51.276;6.390;2023-11-19T08:33:57;11.80;99.90
20998;DHT22;10657;51.276;6.390;2023-11-19T08:36:24;11.80;99.90
20998;DHT22;10657;51.276;6.390;2023-11-19T08:38:50;11.90;99.90
20998;DHT22;10657;51.276;6.390;2023-11-19T08:41:18;11.90;99.90
20998;DHT22;10657;51.276;6.390;2023-11-19T08:43:45;11.90;99.90
20998;DHT22;10657;51.276;6.390;2023-11-19T08:46:12;11.90;99.90
20998;DHT22;10657;51.276;6.390;2023-11-19T08:48:40;11.90;99.90
20998;DHT22;10657;51.276;6.390;2023-11-19T08:51:07;11.90;99.90
20998;DHT22;10657;51.276;6.390;2023-11-19T08:53:34;12.00;99.90
20998;DHT22;10657;51.276;6.390;2023-11-19T08:56:01;12.00;99.90
20998;DHT22;10657;51.276;6.390;2023-11-19T08:58:29;12.10;99.90
20998;DHT22;10657;51.276;6.390;2023-11-19T09:00:57;12.10;99.90
20998;DHT22;10657;51.276;6.390;2023-11-19T09:03:24;12.20;99.90
20998;DHT22;10657;51.276;6.390;2023-11-19T09:05:53;12.20;99.90
20998;DHT22;10657;51.276;6.390;2023-11-19T09:08:20;12.20;99.90
20998;DHT22;10657;51.276;6.390;2023-11-19T09:10:46;12.20;99.90
20998;DHT22;10657;51.276;6.390;2023-11-19T09:13:13;12.30;99.90
20998;DHT22;10657;51.276;6.390;2023-11-19T09:15:40;12.30;99.90
20998;DHT22;10657;51.276;6.390;2023-11-19T09:18:08;12.30;99.90
20998;DHT22;10657;51.276;6.390;2023-11-19T09:20:35;12.30;99.90
20998;DHT22;10657;51.276;6.390;2023-11-19T09:23:05;12.30;99.90
20998;DHT22;10657;51.276;6.390;2023-11-19T09:25:33;12.30;99.90
20998;DHT22;10657;51.276;6.390;2023-11-19T09:28:02;12.40;99.90
20998;DHT22;10657;51.276;6.390;2023-11-19T09:30:29;12.40;99.90
20998;DHT22;10657;51.276;6.390;2023-11-19T09:32:56;12.40;99.90
20998;DHT22;10657;51.276;6.390;2023-11-19T09:35:23;12.40;99.90
20998;DHT22;10657;51.276;6.390;2023-11-19T09:37:50;12.50;99.90
20998;DHT22;10657;51.276;6.390;2023-11-19T09:40:16;12.50;99.90
20998;DHT22;10657;51.276;6.390;2023-11-19T09:42:45;12.60;99.90
20998;DHT22;10657;51.276;6.390;2023-11-19T09:45:15;12.60;99.90
20998;DHT22;10657;51.276;6.390;2023-11-19T09:47:44;12.60;99.90
20998;DHT22;10657;51.276;6.390;2023-11-19T09:50:19;12.70;99.90
20998;DHT22;10657;51.276;6.390;2023-11-19T09:52:46;12.70;99.90
20998;DHT22;10657;51.276;6.390;2023-11-19T09:55:14;12.70;99.90
20998;DHT22;10657;51.276;6.390;2023-11-19T09:57:41;12.70;99.90
20998;DHT22;10657;51.276;6.390;2023-11-19T10:00:12;12.80;99.90
20998;DHT22;10657;51.276;6.390;2023-11-19T10:02:41;12.80;99.90
20998;DHT22;10657;51.276;6.390;2023-11-19T10:05:13;12.70;99.90
20998;DHT22;10657;51.276;6.390;2023-11-19T10:07:41;12.70;99.90
20998;DHT22;10657;51.276;6.390;2023-11-19T10:10:08;12.70;99.90
20998;DHT22;10657;51.276;6.390;2023-11-19T10:12:37;12.70;99.90
20998;DHT22;10657;51.276;6.390;2023-11-19T10:15:04;12.70;99.90
20998;DHT22;10657;51.276;6.390;2023-11-19T10:17:34;12.70;99.90
20998;DHT22;10657;51.276;6.390;2023-11-19T10:20:01;12.80;99.90
20998;DHT22;10657;51.276;6.390;2023-11-19T10:22:28;12.80;99.90
20998;DHT22;10657;51.276;6.390;2023-11-19T10:24:55;12.90;99.90
20998;DHT22;10657;51.276;6.390;2023-11-19T10:27:24;12.90;99.90
20998;DHT22;10657;51.276;6.390;2023-11-19T10:29:52;12.90;99.90
20998;DHT22;10657;51.276;6.390;2023-11-19T10:32:19;12.90;99.90
20998;DHT22;10657;51.276;6.390;2023-11-19T10:35:04;12.90;99.90
20998;DHT22;10657;51.276;6.390;2023-11-19T10:37:31;12.90;99.90
20998;DHT22;10657;51.276;6.390;2023-11-19T10:39:59;13.00;99.90
20998;DHT22;10657;51.276;6.390;2023-11-19T10:42:26;13.00;99.90
20998;DHT22;10657;51.276;6.390;2023-11-19T10:44:53;13.00;99.90
20998;DHT22;10657;51.276;6.390;2023-11-19T10:47:19;13.00;99.90
20998;DHT22;10657;51.276;6.390;2023-11-19T10:50:04;13.00;99.90
20998;DHT22;10657;51.276;6.390;2023-11-19T10:52:33;13.00;99.90
20998;DHT22;10657;51.276;6.390;2023-11-19T10:55:00;13.10;99.90
20998;DHT22;10657;51.276;6.390;2023-11-19T10:57:32;13.20;99.90
20998;DHT22;10657;51.276;6.390;2023-11-19T11:00:03;13.20;99.90
20998;DHT22;10657;51.276;6.390;2023-11-19T11:02:40;13.20;99.90
20998;DHT22;10657;51.276;6.390;2023-11-19T11:05:08;13.20;99.90
20998;DHT22;10657;51.276;6.390;2023-11-19T11:07:36;13.30;99.90
20998;DHT22;10657;51.276;6.390;2023-11-19T11:10:07;13.30;99.90
20998;DHT22;10657;51.276;6.390;2023-11-19T11:12:37;13.20;99.90
20998;DHT22;10657;51.276;6.390;2023-11-19T11:15:11;13.20;99.90
20998;DHT22;10657;51.276;6.390;2023-11-19T11:17:43;13.20;99.90
20998;DHT22;10657;51.276;6.390;2023-11-19T11:20:11;13.20;99.90
20998;DHT22;10657;51.276;6.390;2023-11-19T11:23:10;13.20;99.90
20998;DHT22;10657;51.276;6.390;2023-11-19T11:37:10;13.30;99.90
20998;DHT22;10657;51.276;6.390;2023-11-19T11:39:41;13.30;99.90
20998;DHT22;10657;51.276;6.390;2023-11-19T11:44:59;13.30;99.90
20998;DHT22;10657;51.276;6.390;2023-11-19T11:50:13;13.40;99.90
20998;DHT22;10657;51.276;6.390;2023-11-19T11:55:34;13.40;99.90
20998;DHT22;10657;51.276;6.390;2023-11-19T11:58:01;13.50;99.90
20998;DHT22;10657;51.276;6.390;2023-11-19T12:00:38;13.50;99.90
20998;DHT22;10657;51.276;6.390;2023-11-19T12:03:07;13.60;99.90
20998;DHT22;10657;51.276;6.390;2023-11-19T12:05:42;13.50;99.90
20998;DHT22;10657;51.276;6.390;2023-11-19T12:08:14;13.50;99.90
20998;DHT22;10657;51.276;6.390;2023-11-19T12:10:48;13.50;99.90
20998;DHT22;10657;51.276;6.390;2023-11-19T12:13:16;13.50;99.90
20998;DHT22;10657;51.276;6.390;2023-11-19T12:18:29;13.50;99.90
20998;DHT22;10657;51.276;6.390;2023-11-19T12:20:56;13.40;99.90
20998;DHT22;10657;51.276;6.390;2023-11-19T12:23:23;13.30;99.90
20998;DHT22;10657;51.276;6.390;2023-11-19T12:25:50;13.30;99.90
20998;DHT22;10657;51.276;6.390;2023-11-19T12:28:17;13.00;99.90
20998;DHT22;10657;51.276;6.390;2023-11-19T12:30:45;12.70;99.90
20998;DHT22;10657;51.276;6.390;2023-11-19T12:33:13;12.60;99.90
20998;DHT22;10657;51.276;6.390;2023-11-19T12:35:44;12.60;99.90
20998;DHT22;10657;51.276;6.390;2023-11-19T12:38:22;12.70;99.90
20998;DHT22;10657;51.276;6.390;2023-11-19T12:41:09;12.80;99.90
20998;DHT22;10657;51.276;6.390;2023-11-19T12:43:39;12.80;99.90
20998;DHT22;10657;51.276;6.390;2023-11-19T12:46:22;12.90;99.90
20998;DHT22;10657;51.276;6.390;2023-11-19T12:48:50;13.10;99.90
20998;DHT22;10657;51.276;6.390;2023-11-19T12:51:18;13.10;99.90
20998;DHT22;10657;51.276;6.390;2023-11-19T12:53:52;13.20;99.90
20998;DHT22;10657;51.276;6.390;2023-11-19T12:56:22;13.30;99.90
20998;DHT22;10657;51.276;6.390;2023-11-19T12:58:49;13.40;99.90
20998;DHT22;10657;51.276;6.390;2023-11-19T13:01:18;13.50;99.90
20998;DHT22;10657;51.276;6.390;2023-11-19T13:03:46;13.60;99.90
20998;DHT22;10657;51.276;6.390;2023-11-19T13:06:15;13.70;99.90
20998;DHT22;10657;51.276;6.390;2023-11-19T13:08:43;13.80;99.90
20998;DHT22;10657;51.276;6.390;2023-11-19T13:11:17;13.70;99.90
20998;DHT22;10657;51.276;6.390;2023-11-19T13:13:57;13.80;99.90
20998;DHT22;10657;51.276;6.390;2023-11-19T13:16:25;13.90;99.90
20998;DHT22;10657;51.276;6.390;2023-11-19T13:18:53;13.80;99.90
20998;DHT22;10657;51.276;6.390;2023-11-19T13:21:19;13.80;99.90
20998;DHT22;10657;51.276;6.390;2023-11-19T13:23:46;13.80;99.90
20998;DHT22;10657;51.276;6.390;2023-11-19T13:26:13;13.90;99.90
20998;DHT22;10657;51.276;6.390;2023-11-19T13:28:40;14.00;99.90
20998;DHT22;10657;51.276;6.390;2023-11-19T13:31:06;13.90;99.90
20998;DHT22;10657;51.276;6.390;2023-11-19T13:33:34;13.80;99.90
20998;DHT22;10657;51.276;6.390;2023-11-19T13:36:01;13.60;99.90
20998;DHT22;10657;51.276;6.390;2023-11-19T13:38:35;13.50;99.90
20998;DHT22;10657;51.276;6.390;2023-11-19T13:41:03;13.40;99.90
20998;DHT22;10657;51.276;6.390;2023-11-19T13:43:33;13.30;99.90
20998;DHT22;10657;51.276;6.390;2023-11-19T13:46:00;13.30;99.90
20998;DHT22;10657;51.276;6.390;2023-11-19T13:48:26;13.30;99.90
20998;DHT22;10657;51.276;6.390;2023-11-19T13:50:55;13.20;99.90
20998;DHT22;10657;51.276;6.390;2023-11-19T13:53:23;13.20;99.90
20998;DHT22;10657;51.276;6.390;2023-11-19T13:55:52;13.10;99.90
20998;DHT22;10657;51.276;6.390;2023-11-19T13:58:19;13.20;99.90
20998;DHT22;10657;51.276;6.390;2023-11-19T14:00:46;13.20;99.90
20998;DHT22;10657;51.276;6.390;2023-11-19T14:03:13;13.10;99.90
20998;DHT22;10657;51.276;6.390;2023-11-19T14:05:40;13.00;99.90
20998;DHT22;10657;51.276;6.390;2023-11-19T14:08:08;13.00;99.90
20998;DHT22;10657;51.276;6.390;2023-11-19T14:10:51;12.90;99.90
20998;DHT22;10657;51.276;6.390;2023-11-19T14:13:18;12.70;99.90
20998;DHT22;10657;51.276;6.390;2023-11-19T14:15:44;12.60;99.90
20998;DHT22;10657;51.276;6.390;2023-11-19T14:18:15;12.50;99.90
20998;DHT22;10657;51.276;6.390;2023-11-19T14:20:42;12.40;99.90
20998;DHT22;10657;51.276;6.390;2023-11-19T14:23:09;12.30;99.90
20998;DHT22;10657;51.276;6.390;2023-11-19T14:25:36;12.20;99.90
20998;DHT22;10657;51.276;6.390;2023-11-19T14:28:02;12.00;99.90
20998;DHT22;10657;51.276;6.390;2023-11-19T14:30:32;11.80;99.90
20998;DHT22;10657;51.276;6.390;2023-11-19T14:32:58;11.70;99.90
20998;DHT22;10657;51.276;6.390;2023-11-19T14:35:25;11.70;99.90
20998;DHT22;10657;51.276;6.390;2023-11-19T14:37:52;11.60;99.90
20998;DHT22;10657;51.276;6.390;2023-11-19T14:40:19;11.70;99.90
20998;DHT22;10657;51.276;6.390;2023-11-19T14:42:46;11.70;99.90
20998;DHT22;10657;51.276;6.390;2023-11-19T14:45:13;11.60;99.90
20998;DHT22;10657;51.276;6.390;2023-11-19T14:47:40;11.60;99.90
20998;DHT22;10657;51.276;6.390;2023-11-19T14:50:07;11.60;99.90
20998;DHT22;10657;51.276;6.390;2023-11-19T14:52:35;11.70;99.90
20998;DHT22;10657;51.276;6.390;2023-11-19T14:55:03;11.70;99.90
20998;DHT22;10657;51.276;6.390;2023-11-19T14:57:30;11.70;99.90
20998;DHT22;10657;51.276;6.390;2023-11-19T14:59:57;11.60;99.90
20998;DHT22;10657;51.276;6.390;2023-11-19T15:02:24;11.60;99.90
20998;DHT22;10657;51.276;6.390;2023-11-19T15:04:50;11.60;99.90
20998;DHT22;10657;51.276;6.390;2023-11-19T15:07:18;11.50;99.90
20998;DHT22;10657;51.276;6.390;2023-11-19T15:09:44;11.50;99.90
20998;DHT22;10657;51.276;6.390;2023-11-19T15:12:12;11.60;99.90
20998;DHT22;10657;51.276;6.390;2023-11-19T15:14:38;11.50;99.90
20998;DHT22;10657;51.276;6.390;2023-11-19T15:17:05;11.60;99.90
20998;DHT22;10657;51.276;6.390;2023-11-19T15:19:33;11.50;99.90
20998;DHT22;10657;51.276;6.390;2023-11-19T15:22:00;11.50;99.90
20998;DHT22;10657;51.276;6.390;2023-11-19T15:24:31;11.50;99.90
20998;DHT22;10657;51.276;6.390;2023-11-19T15:26:57;11.50;99.90
20998;DHT22;10657;51.276;6.390;2023-11-19T15:29:27;11.60;99.90
20998;DHT22;10657;51.276;6.390;2023-11-19T15:31:55;11.50;99.90
20998;DHT22;10657;51.276;6.390;2023-11-19T15:34:21;11.50;99.90
20998;DHT22;10657;51.276;6.390;2023-11-19T15:36:48;11.50;99.90
20998;DHT22;10657;51.276;6.390;2023-11-19T15:39:15;11.50;99.90
20998;DHT22;10657;51.276;6.390;2023-11-19T15:41:42;11.60;99.90
20998;DHT22;10657;51.276;6.390;2023-11-19T15:44:09;11.60;99.90
20998;DHT22;10657;51.276;6.390;2023-11-19T15:46:35;11.60;99.90
20998;DHT22;10657;51.276;6.390;2023-11-19T15:49:02;11.60;99.90
20998;DHT22;10657;51.276;6.390;2023-11-19T15:51:29;11.60;99.90
20998;DHT22;10657;51.276;6.390;2023-11-19T15:53:55;11.60;99.90
20998;DHT22;10657;51.276;6.390;2023-11-19T15:56:22;11.60;99.90
20998;DHT22;10657;51.276;6.390;2023-11-19T15:58:49;11.60;99.90